Station Historical Data
Daily Summary for February 11, 2019 Units:  Metric    English   Both
« Previous Day
Next Day »
Daily Weekly Monthly Yearly Custom
  High: Low: Average:
Temperature: -17.8 °C -16 °C -13.2 °C
Dew Point: -17.8 °C -22.6 °C -19.2 °C
Humidity: Humidity % 22 % 55 %
Wind Speed: 0 km/h 15.6 km/h 39.3 km/h
Wind Gust: 0 km/h - -
Wind:- - WNW
Pressure: 0 hPa 34063.2 hPa -
Precipitation: 0 mm    
Historical Graphs
 
 
Tabular Data for February 11, 2019
Time Temperature Dew Point Pressure Wind Wind Speed Wind Gust Humidity Rainfall Rate (Hourly) solar Conditions
-17.8 °C -17.8 °C 0 hPa Calm     Humidity % 0 mm SolarRadiationWatts/m^2 W/m2 Conditions
00:03 -15.1 °C -15.8 °C 34069.9 hPa West 33.6 km/h 20.8 km/h 91 % 0 mm 0.00 W/m2 CLR
00:09 -15.1 °C -15.8 °C 34073.3 hPa WSW 38.8 km/h 27.7 km/h 91 % 0 mm 0.00 W/m2 CLR
00:14 -15.1 °C -15.8 °C 34083.5 hPa WSW 25.9 km/h 17.5 km/h 91 % 0 mm 0.00 W/m2 CLR
00:18 -15.1 °C -15.8 °C 34086.9 hPa WSW 31.1 km/h 21.7 km/h 91 % 0 mm 0.00 W/m2 CLR
00:24 -15.1 °C -15.8 °C 34090.2 hPa West 23.8 km/h 14.5 km/h 91 % 0 mm 0.00 W/m2 CLR
00:29 -15.1 °C -15.8 °C 34086.9 hPa WSW 20.9 km/h 17.5 km/h 91 % 0 mm 0.00 W/m2 CLR
00:33 -15.1 °C -15.8 °C 34090.2 hPa WSW 36.2 km/h 21.6 km/h 91 % 0 mm 0.00 W/m2 CLR
00:39 -15.1 °C -15.8 °C 34093.6 hPa West 26.9 km/h 16.3 km/h 91 % 0 mm 0.00 W/m2 CLR
00:44 -15 °C -15.7 °C 34090.2 hPa WSW 28.5 km/h 21.7 km/h 91 % 0 mm 0.00 W/m2 CLR
00:48 -15 °C -15.7 °C 34086.9 hPa WSW 38.8 km/h 24.1 km/h 91 % 0 mm 0.00 W/m2 CLR
00:54 -14.9 °C -15.7 °C 34080.1 hPa SW 41.7 km/h 25.6 km/h 91 % 0 mm 0.00 W/m2 CLR
00:58 -14.9 °C -15.7 °C 34083.5 hPa WSW 25.9 km/h 17.5 km/h 91 % 0 mm 0.00 W/m2 CLR
01:03 -14.9 °C -15.7 °C 34080.1 hPa West 29.8 km/h 18.7 km/h 91 % 0 mm 0.00 W/m2 CLR
01:08 -14.9 °C -15.7 °C 34076.7 hPa WSW 28.5 km/h 14.5 km/h 91 % 0 mm 0.00 W/m2 CLR
01:13 -14.9 °C -15.7 °C 34076.7 hPa West 33.6 km/h 22.2 km/h 91 % 0 mm 0.00 W/m2 CLR
01:18 -15 °C -15.7 °C 34076.7 hPa WSW 26.9 km/h 16.3 km/h 91 % 0 mm 0.00 W/m2 CLR
01:23 -15.1 °C -15.8 °C 34073.3 hPa West 38.8 km/h 22.2 km/h 91 % 0 mm 0.00 W/m2 CLR
01:28 -15.1 °C -15.8 °C 34073.3 hPa SW 29.8 km/h 20.3 km/h 91 % 0 mm 0.00 W/m2 CLR
01:33 -15.1 °C -15.8 °C 34073.3 hPa WSW 33.6 km/h 23.8 km/h 91 % 0 mm 0.00 W/m2 CLR
01:38 -15.1 °C -15.8 °C 34066.5 hPa SW 32.8 km/h 22 km/h 91 % 0 mm 0.00 W/m2 CLR
01:43 -15.1 °C -15.9 °C 34066.5 hPa SW 26.9 km/h 16.6 km/h 91 % 0 mm 0.00 W/m2 CLR
01:48 -15.1 °C -15.9 °C 34073.3 hPa West 28.5 km/h 17.4 km/h 91 % 0 mm 0.00 W/m2 CLR
01:53 -15.1 °C -15.8 °C 34080.1 hPa WNW 32.8 km/h 16.3 km/h 91 % 0 mm 0.00 W/m2 CLR
01:59 -15.1 °C -15.8 °C 34069.9 hPa West 35.7 km/h 20.4 km/h 91 % 0 mm 0.00 W/m2 CLR
02:03 -15.1 °C -15.8 °C 34066.5 hPa WSW 36.2 km/h 24.3 km/h 91 % 0 mm 0.00 W/m2 CLR
02:08 -15.1 °C -15.8 °C 34069.9 hPa WSW 38.8 km/h 26.9 km/h 91 % 0 mm 0.00 W/m2 CLR
02:14 -15.1 °C -15.9 °C 34063.2 hPa WSW 33.6 km/h 25.1 km/h 91 % 0 mm 0.00 W/m2 CLR
02:18 -15.2 °C -15.9 °C 34066.5 hPa West 41.7 km/h 25.1 km/h 91 % 0 mm 0.00 W/m2 CLR
02:23 -15.2 °C -16 °C 34066.5 hPa West 36.2 km/h 25.9 km/h 91 % 0 mm 0.00 W/m2 CLR
02:29 -15.3 °C -16 °C 34066.5 hPa NW 29.8 km/h 17.5 km/h 91 % 0 mm 0.00 W/m2 CLR
02:33 -15.3 °C -16.1 °C 34069.9 hPa WNW 26.9 km/h 15.8 km/h 91 % 0 mm 0.00 W/m2 CLR
02:38 -15.3 °C -16.1 °C 34080.1 hPa NW 31.1 km/h 19.6 km/h 91 % 0 mm 0.00 W/m2 CLR
02:44 -15.3 °C -16.1 °C 34090.2 hPa WNW 15.6 km/h 10.9 km/h 91 % 0 mm 0.00 W/m2 CLR
02:48 -15.4 °C -16.1 °C 34086.9 hPa NW 28.5 km/h 20 km/h 91 % 0 mm 0.00 W/m2 CLR
02:54 -15.4 °C -16.2 °C 34086.9 hPa NW 20.9 km/h 13.7 km/h 91 % 0 mm 0.00 W/m2 CLR
02:59 -15.4 °C -16.2 °C 34090.2 hPa WNW 29.8 km/h 15.3 km/h 91 % 0 mm 0.00 W/m2 CLR
03:03 -15.4 °C -16.2 °C 34093.6 hPa NW 33.6 km/h 23.5 km/h 91 % 0 mm 0.00 W/m2 CLR
03:09 -15.4 °C -16.2 °C 34090.2 hPa WNW 31.1 km/h 16.9 km/h 91 % 0 mm 0.00 W/m2 CLR
03:14 -15.5 °C -16.2 °C 34086.9 hPa West 33.6 km/h 21.2 km/h 91 % 0 mm 0.00 W/m2 CLR
03:18 -15.5 °C -16.3 °C 34083.5 hPa WNW 36.2 km/h 20.4 km/h 91 % 0 mm 0.00 W/m2 CLR
03:24 -15.6 °C -16.2 °C 34080.1 hPa West 25.9 km/h 17.4 km/h 92 % 0 mm 0.00 W/m2 CLR
03:28 -15.6 °C -16.2 °C 34076.7 hPa SW 36.2 km/h 27.7 km/h 92 % 0 mm 0.00 W/m2 CLR
03:32 -15.6 °C -16.3 °C 34080.1 hPa WSW 33.6 km/h 20.8 km/h 91 % 0 mm 0.00 W/m2 CLR
03:38 -15.7 °C -16.4 °C 34080.1 hPa SW 33.6 km/h 21.6 km/h 91 % 0 mm 0.00 W/m2 CLR
03:43 -15.7 °C -16.3 °C 34076.7 hPa West 28.5 km/h 20.3 km/h 92 % 0 mm 0.00 W/m2 CLR
03:48 -15.7 °C -16.3 °C 34076.7 hPa WNW 36.2 km/h 20 km/h 92 % 0 mm 0.00 W/m2 CLR
03:53 -15.7 °C -16.5 °C 34076.7 hPa WSW 44.1 km/h 31.9 km/h 91 % 0 mm 0.00 W/m2 CLR
03:58 -15.7 °C -16.5 °C 34073.3 hPa West 44.1 km/h 23.3 km/h 91 % 0 mm 0.00 W/m2 CLR
04:03 -15.8 °C -16.5 °C 34073.3 hPa SW 38.8 km/h 22.5 km/h 91 % 0 mm 0.00 W/m2 CLR
04:08 -15.8 °C -16.6 °C 34073.3 hPa West 41.4 km/h 26.9 km/h 91 % 0 mm 0.00 W/m2 CLR
04:14 -15.8 °C -16.6 °C 34073.3 hPa SW 47.6 km/h 31.9 km/h 91 % 0 mm 0.00 W/m2 CLR
04:18 -15.8 °C -16.6 °C 34076.7 hPa WSW 47.6 km/h 31.4 km/h 91 % 0 mm 0.00 W/m2 CLR
04:23 -15.8 °C -16.5 °C 34076.7 hPa SSW 41.4 km/h 22.5 km/h 92 % 0 mm 0.00 W/m2 CLR
04:29 -15.9 °C -16.5 °C 34080.1 hPa West 47.6 km/h 23.5 km/h 92 % 0 mm 0.00 W/m2 CLR
04:33 -15.9 °C -16.6 °C 34083.5 hPa West 41.7 km/h 25.4 km/h 92 % 0 mm 0.00 W/m2 CLR
04:38 -15.9 °C -16.6 °C 34080.1 hPa WSW 33.6 km/h 19.6 km/h 92 % 0 mm 0.00 W/m2 CLR
04:44 -15.9 °C -16.6 °C 34083.5 hPa WSW 38.8 km/h 23.5 km/h 92 % 0 mm 0.00 W/m2 CLR
04:48 -15.9 °C -16.6 °C 34080.1 hPa West 36.2 km/h 25.6 km/h 92 % 0 mm 0.00 W/m2 CLR
04:53 -15.9 °C -16.6 °C 34086.9 hPa WSW 50.7 km/h 31.1 km/h 92 % 0 mm 0.00 W/m2 CLR
04:59 -15.9 °C -16.6 °C 34083.5 hPa WSW 44.7 km/h 20.4 km/h 92 % 0 mm 0.00 W/m2 CLR
05:03 -15.9 °C -16.6 °C 34080.1 hPa WSW 41.7 km/h 29.8 km/h 92 % 0 mm 0.00 W/m2 CLR
05:09 -15.9 °C -16.6 °C 34083.5 hPa WSW 44.7 km/h 31.4 km/h 92 % 0 mm 0.00 W/m2 CLR
05:14 -15.9 °C -16.6 °C 34086.9 hPa WSW 38.8 km/h 30.6 km/h 92 % 0 mm 0.00 W/m2 CLR
05:18 -15.9 °C -16.6 °C 34090.2 hPa WSW 33.6 km/h 23 km/h 92 % 0 mm 0.00 W/m2 CLR
05:24 -15.9 °C -16.6 °C 34090.2 hPa West 44.7 km/h 26.2 km/h 92 % 0 mm 0.00 W/m2 CLR
05:29 -15.9 °C -16.6 °C 34090.2 hPa WSW 33.6 km/h 25.4 km/h 92 % 0 mm 0.00 W/m2 CLR
05:33 -15.9 °C -16.6 °C 34093.6 hPa WSW 47.6 km/h 27.2 km/h 92 % 0 mm 0.00 W/m2 CLR
05:39 -15.9 °C -16.6 °C 34090.2 hPa West 47.6 km/h 32.7 km/h 92 % 0 mm 0.00 W/m2 CLR
05:44 -15.9 °C -16.6 °C 34086.9 hPa West 49.2 km/h 35.4 km/h 92 % 0 mm 0.00 W/m2 CLR
05:48 -15.9 °C -16.6 °C 34090.2 hPa SW 50.7 km/h 25.6 km/h 92 % 0 mm 0.00 W/m2 CLR
05:54 -15.9 °C -16.5 °C 34093.6 hPa WSW 38.8 km/h 28.5 km/h 92 % 0 mm 0.00 W/m2 CLR
05:59 -15.9 °C -16.6 °C 34097 hPa WSW 44.7 km/h 31.5 km/h 92 % 0 mm 0.00 W/m2 CLR
06:03 -15.9 °C -16.6 °C 34097 hPa SW 36.2 km/h 26.2 km/h 92 % 0 mm 0.00 W/m2 CLR
06:08 -15.9 °C -16.6 °C 34103.8 hPa WSW 44.7 km/h 27.5 km/h 92 % 0 mm 0.00 W/m2 CLR
06:13 -15.9 °C -16.7 °C 34110.6 hPa WSW 47.6 km/h 29 km/h 91 % 0 mm 0.00 W/m2 CLR
06:18 -15.9 °C -16.7 °C 34110.6 hPa SSW 38.8 km/h 30.1 km/h 91 % 0 mm 0.00 W/m2 CLR
06:23 -15.9 °C -16.7 °C 34110.6 hPa West 36.2 km/h 25.6 km/h 91 % 0 mm 0.00 W/m2 CLR
06:28 -15.9 °C -16.7 °C 34110.6 hPa WSW 46.7 km/h 30.7 km/h 91 % 0 mm 0.00 W/m2 CLR
06:33 -15.9 °C -16.7 °C 34110.6 hPa West 53.6 km/h 30.6 km/h 91 % 0 mm 0.00 W/m2 CLR
06:38 -15.9 °C -16.7 °C 34110.6 hPa SW 41.7 km/h 25.9 km/h 91 % 0 mm 0.00 W/m2 CLR
06:44 -15.9 °C -16.7 °C 34114 hPa West 41.7 km/h 26.2 km/h 91 % 0 mm 0.00 W/m2 CLR
06:48 -16 °C -16.7 °C 34117.3 hPa West 38.8 km/h 31.1 km/h 91 % 0 mm 0.00 W/m2 CLR
06:53 -15.9 °C -16.7 °C 34117.3 hPa WSW 33.6 km/h 23.3 km/h 91 % 0 mm 0.00 W/m2 CLR
06:59 -15.9 °C -16.8 °C 34120.7 hPa WSW 33.6 km/h 26.9 km/h 90 % 0 mm 0.00 W/m2 CLR
07:03 -15.9 °C -16.8 °C 34124.1 hPa WSW 31.1 km/h 23.8 km/h 90 % 0 mm 0.00 W/m2 CLR
07:08 -15.9 °C -16.8 °C 34134.3 hPa WSW 32.8 km/h 24.1 km/h 90 % 0 mm 0.00 W/m2 CLR
07:14 -15.9 °C -16.8 °C 34137.7 hPa West 31.1 km/h 23 km/h 90 % 0 mm 0.00 W/m2 CLR
07:18 -15.9 °C -16.8 °C 34137.7 hPa WNW 41.7 km/h 23.8 km/h 90 % 0 mm 0.00 W/m2 CLR
07:24 -15.9 °C -16.8 °C 34147.8 hPa WSW 32.8 km/h 21.7 km/h 90 % 0 mm 0.00 W/m2 CLR
07:29 -15.9 °C -16.8 °C 34147.8 hPa West 38.8 km/h 26.7 km/h 90 % 0 mm 0.00 W/m2 CLR
07:33 -15.9 °C -16.8 °C 34154.6 hPa WSW 36.2 km/h 23.8 km/h 90 % 0 mm 5.00 W/m2 CLR
07:39 -15.9 °C -16.8 °C 34154.6 hPa WSW 38.8 km/h 28.5 km/h 89 % 0 mm 9.00 W/m2 CLR
07:44 -15.9 °C -16.8 °C 34158 hPa West 44.7 km/h 32.2 km/h 89 % 0 mm 14.00 W/m2 FEW
07:48 -15.9 °C -16.8 °C 34164.7 hPa West 41.7 km/h 23.8 km/h 89 % 0 mm 18.00 W/m2 SCT
07:54 -15.9 °C -16.8 °C 34168.1 hPa WSW 36.2 km/h 22.2 km/h 89 % 0 mm 23.00 W/m2 SCT
07:59 -15.9 °C -16.9 °C 34168.1 hPa West 38.8 km/h 29.8 km/h 88 % 0 mm 30.00 W/m2 SCT
08:04 -15.9 °C -16.9 °C 34168.1 hPa WSW 31.1 km/h 22 km/h 88 % 0 mm 51.00 W/m2 CLR
08:09 -15.9 °C -16.9 °C 34174.9 hPa West 41.4 km/h 20 km/h 88 % 0 mm 63.00 W/m2 CLR
08:13 -15.9 °C -16.9 °C 34174.9 hPa WSW 44.1 km/h 25.1 km/h 88 % 0 mm 72.00 W/m2 CLR
08:19 -15.8 °C -16.8 °C 34181.7 hPa West 41.7 km/h 29.8 km/h 88 % 0 mm 84.00 W/m2 CLR
08:24 -15.7 °C -16.8 °C 34188.4 hPa WSW 36.2 km/h 27.2 km/h 87 % 0 mm 77.00 W/m2 FEW
08:29 -15.7 °C -16.7 °C 34191.8 hPa WSW 44.7 km/h 26.2 km/h 87 % 0 mm 84.00 W/m2 FEW
08:34 -15.6 °C -16.8 °C 34191.8 hPa WSW 36.2 km/h 27.5 km/h 86 % 0 mm 88.00 W/m2 FEW
08:38 -15.5 °C -16.8 °C 34195.2 hPa SW 31.1 km/h 19.2 km/h 85 % 0 mm 76.00 W/m2 FEW
08:43 -15.4 °C -16.7 °C 34202 hPa WSW 41.4 km/h 29.8 km/h 85 % 0 mm 76.00 W/m2 SCT
08:48 -15.4 °C -16.8 °C 34205.4 hPa SW 33.6 km/h 23 km/h 84 % 0 mm 74.00 W/m2 SCT
08:53 -15.3 °C -16.8 °C 34202 hPa West 41.4 km/h 28 km/h 83 % 0 mm 67.00 W/m2 SCT
08:59 -15.3 °C -16.8 °C 34205.4 hPa West 41.7 km/h 26.4 km/h 82 % 0 mm 77.00 W/m2 SCT
09:03 -15.3 °C -16.8 °C 34202 hPa WSW 31.1 km/h 21.6 km/h 82 % 0 mm 86.00 W/m2 SCT
09:08 -15.3 °C -16.9 °C 34212.1 hPa WSW 32.8 km/h 21.6 km/h 81 % 0 mm 90.00 W/m2 SCT
09:14 -15.2 °C -16.9 °C 34215.5 hPa SW 38.8 km/h 31.1 km/h 81 % 0 mm 77.00 W/m2 SCT
09:18 -15.2 °C -17 °C 34215.5 hPa West 38.8 km/h 25.1 km/h 80 % 0 mm 91.00 W/m2 SCT
09:23 -15.2 °C -16.9 °C 34218.9 hPa WSW 38.8 km/h 23.5 km/h 80 % 0 mm 113.00 W/m2 SCT
09:29 -15.2 °C -16.9 °C 34218.9 hPa West 36.2 km/h 25.6 km/h 80 % 0 mm 97.00 W/m2 SCT
09:33 -15.2 °C -16.9 °C 34218.9 hPa WSW 33.6 km/h 23.8 km/h 80 % 0 mm 114.00 W/m2 SCT
09:38 -15.2 °C -17 °C 34215.5 hPa WSW 31.1 km/h 21.7 km/h 79 % 0 mm 155.00 W/m2 SCT
09:44 -15.1 °C -16.9 °C 34215.5 hPa WSW 33.6 km/h 20.9 km/h 79 % 0 mm 169.00 W/m2 SCT
09:48 -14.9 °C -16.9 °C 34218.9 hPa West 31.1 km/h 21.2 km/h 78 % 0 mm 239.00 W/m2 SCT
09:53 -14.8 °C -16.8 °C 34215.5 hPa West 29.8 km/h 22.2 km/h 78 % 0 mm 292.00 W/m2 FEW
09:59 -14.6 °C -16.7 °C 34215.5 hPa WSW 33.6 km/h 18.8 km/h 76 % 0 mm 306.00 W/m2 CLR
10:03 -14.3 °C -16.8 °C 34215.5 hPa SW 25.9 km/h 16.6 km/h 73 % 0 mm 276.00 W/m2 CLR
10:09 -13.9 °C -16.7 °C 34215.5 hPa West 26.9 km/h 20 km/h 71 % 0 mm 352.00 W/m2 CLR
10:14 -13.7 °C -16.8 °C 34215.5 hPa NW 38.8 km/h 20 km/h 68 % 0 mm 371.00 W/m2 CLR
10:18 -13.4 °C -16.8 °C 34215.5 hPa West 36.2 km/h 25.6 km/h 66 % 0 mm 388.00 W/m2 CLR
10:24 -13.2 °C -17.1 °C 34218.9 hPa West 38.8 km/h 22.5 km/h 61 % 0 mm 403.00 W/m2 CLR
10:29 -12.7 °C -17.1 °C 34215.5 hPa NW 36.2 km/h 22 km/h 58 % 0 mm 413.00 W/m2 CLR
10:33 -12.5 °C -17 °C 34222.3 hPa WNW 31.1 km/h 22 km/h 57 % 0 mm 417.00 W/m2 CLR
10:39 -12.2 °C -17.7 °C 34225.7 hPa NW 50.7 km/h 29 km/h 50 % 0 mm 415.00 W/m2 CLR
10:44 -11.9 °C -18.4 °C 34222.3 hPa WNW 51.8 km/h 34.8 km/h 44 % 0 mm 425.00 W/m2 CLR
10:48 -11.8 °C -18.6 °C 34222.3 hPa WNW 59.5 km/h 41.2 km/h 43 % 0 mm 431.00 W/m2 CLR
10:54 -11.8 °C -18.5 °C 34222.3 hPa WNW 47.6 km/h 33.5 km/h 43 % 0 mm 438.00 W/m2 CLR
10:59 -11.8 °C -18.5 °C 34222.3 hPa WNW 47.6 km/h 32.7 km/h 43 % 0 mm 439.00 W/m2 CLR
11:04 -11.8 °C -18.7 °C 34225.7 hPa NW 50.7 km/h 35.4 km/h 42 % 0 mm 443.00 W/m2 CLR
11:09 -11.8 °C -18.7 °C 34229.1 hPa NNW 62.1 km/h 36.7 km/h 42 % 0 mm 446.00 W/m2 CLR
11:13 -11.7 °C -18.6 °C 34229.1 hPa West 38.8 km/h 29.5 km/h 42 % 0 mm 450.00 W/m2 CLR
11:18 -11.6 °C -18.7 °C 34229.1 hPa NW 33.6 km/h 25.6 km/h 41 % 0 mm 455.00 W/m2 CLR
11:23 -11.4 °C -18.9 °C 34229.1 hPa NW 41.7 km/h 31.1 km/h 39 % 0 mm 459.00 W/m2 CLR
11:28 -11.4 °C -19.1 °C 34229.1 hPa NW 41.7 km/h 30.3 km/h 38 % 0 mm 464.00 W/m2 CLR
11:33 -11.3 °C -19.3 °C 34232.5 hPa North 56.6 km/h 29.3 km/h 37 % 0 mm 469.00 W/m2 CLR
11:38 -11.3 °C -19.4 °C 34232.5 hPa West 54.4 km/h 37.5 km/h 36 % 0 mm 473.00 W/m2 CLR
11:43 -11.3 °C -19.4 °C 34232.5 hPa WNW 51.8 km/h 39.4 km/h 36 % 0 mm 480.00 W/m2 CLR
11:48 -11.2 °C -19.3 °C 34235.8 hPa WNW 62.6 km/h 42.2 km/h 36 % 0 mm 482.00 W/m2 CLR
11:53 -11.2 °C -19.3 °C 34235.8 hPa NW 57 km/h 38.1 km/h 36 % 0 mm 485.00 W/m2 CLR
11:58 -11.2 °C -19.3 °C 34235.8 hPa NW 59.5 km/h 33.2 km/h 36 % 0 mm 489.00 W/m2 CLR
12:03 -11.1 °C -19.4 °C 34232.5 hPa WNW 41.7 km/h 24.6 km/h 35 % 0 mm 492.00 W/m2 CLR
12:08 -11.1 °C -19.4 °C 34235.8 hPa NW 46.7 km/h 36.7 km/h 35 % 0 mm 497.00 W/m2 CLR
12:14 -11 °C -19.3 °C 34232.5 hPa WNW 33.6 km/h 23.5 km/h 35 % 0 mm 499.00 W/m2 CLR
12:18 -10.9 °C -19.1 °C 34235.8 hPa WNW 31.1 km/h 18.2 km/h 36 % 0 mm 503.00 W/m2 CLR
12:23 -10.8 °C -19.1 °C 34235.8 hPa West 41.7 km/h 28.8 km/h 35 % 0 mm 492.00 W/m2 CLR
12:29 -10.7 °C -20 °C 34232.5 hPa NW 44.7 km/h 34 km/h 31 % 0 mm 464.00 W/m2 CLR
12:34 -10.6 °C -20.1 °C 34232.5 hPa WNW 46.7 km/h 33.5 km/h 30 % 0 mm 438.00 W/m2 CLR
12:38 -10.5 °C -20.3 °C 34232.5 hPa NW 44.7 km/h 26.9 km/h 29 % 0 mm 418.00 W/m2 CLR
12:44 -10.5 °C -20.1 °C 34232.5 hPa NNW 33.6 km/h 26.4 km/h 30 % 0 mm 406.00 W/m2 CLR
12:49 -10.4 °C -20.5 °C 34232.5 hPa WNW 54.4 km/h 39.1 km/h 28 % 0 mm 408.00 W/m2 CLR
12:53 -10.4 °C -20.8 °C 34235.8 hPa NNW 62.6 km/h 35.2 km/h 27 % 0 mm 394.00 W/m2 FEW
12:59 -10.4 °C -20.8 °C 34235.8 hPa North 44.7 km/h 23.8 km/h 27 % 0 mm 371.00 W/m2 FEW
13:04 -10.4 °C -20.7 °C 34232.5 hPa NW 54.4 km/h 28.8 km/h 27 % 0 mm 378.00 W/m2 FEW
13:08 -10.4 °C -20.4 °C 34232.5 hPa NW 65.5 km/h 35.4 km/h 28 % 0 mm 420.00 W/m2 FEW
13:14 -10.3 °C -20.7 °C 34235.8 hPa NNW 51.8 km/h 35.7 km/h 27 % 0 mm 490.00 W/m2 CLR
13:19 -10.2 °C -20.3 °C 34235.8 hPa NW 33.6 km/h 26.2 km/h 28 % 0 mm 522.00 W/m2 CLR
13:23 -10.2 °C -20.3 °C 34235.8 hPa WNW 57 km/h 38.3 km/h 28 % 0 mm 403.00 W/m2 CLR
13:29 -10.2 °C -20.3 °C 34239.2 hPa NNW 47.6 km/h 33.5 km/h 28 % 0 mm 401.00 W/m2 CLR
13:34 -10.3 °C -20.7 °C 34235.8 hPa NW 36.2 km/h 20.9 km/h 27 % 0 mm 492.00 W/m2 CLR
13:39 -10.2 °C -20.9 °C 34239.2 hPa NW 36.2 km/h 22.2 km/h 26 % 0 mm 534.00 W/m2 CLR
13:43 -10.2 °C -21.2 °C 34239.2 hPa North 57 km/h 35.7 km/h 25 % 0 mm 534.00 W/m2 CLR
13:48 -10.2 °C -21.1 °C 34239.2 hPa NW 56.6 km/h 34 km/h 25 % 0 mm 527.00 W/m2 CLR
13:53 -10.2 °C -21.2 °C 34239.2 hPa WNW 59.5 km/h 46.7 km/h 25 % 0 mm 524.00 W/m2 CLR
13:58 -10.2 °C -21.1 °C 34239.2 hPa NW 64.7 km/h 51.5 km/h 25 % 0 mm 272.00 W/m2 CLR
14:03 -10.2 °C -21.4 °C 34246 hPa WNW 69.8 km/h 50.5 km/h 24 % 0 mm 489.00 W/m2 CLR
14:09 -10.2 °C -21.2 °C 34242.6 hPa NW 44.7 km/h 28 km/h 25 % 0 mm 519.00 W/m2 CLR
14:13 -10.2 °C -21.1 °C 34246 hPa NW 44.7 km/h 31.5 km/h 25 % 0 mm 534.00 W/m2 CLR
14:18 -10.2 °C -20.8 °C 34242.6 hPa North 50.7 km/h 36.5 km/h 26 % 0 mm 538.00 W/m2 CLR
14:24 -10.2 °C -21.4 °C 34246 hPa NW 62.1 km/h 49.7 km/h 24 % 0 mm 540.00 W/m2 CLR
14:28 -10.2 °C -21.8 °C 34246 hPa NW 68.6 km/h 51.5 km/h 23 % 0 mm 506.00 W/m2 CLR
14:33 -10.2 °C -21.8 °C 34249.4 hPa WNW 65.5 km/h 40.7 km/h 23 % 0 mm 432.00 W/m2 CLR
14:39 -10.2 °C -21.2 °C 34249.4 hPa WNW 51.8 km/h 34.4 km/h 25 % 0 mm 406.00 W/m2 CLR
14:43 -10.2 °C -21.2 °C 34252.8 hPa NNW 47.6 km/h 19.2 km/h 25 % 0 mm 436.00 W/m2 CLR
14:48 -10.2 °C -21.7 °C 34259.5 hPa NNW 62.6 km/h 33.5 km/h 23 % 0 mm 499.00 W/m2 CLR
14:54 -10.2 °C -21.1 °C 34262.9 hPa North 49.2 km/h 36.2 km/h 25 % 0 mm 483.00 W/m2 CLR
14:58 -10.2 °C -21.7 °C 34256.2 hPa NW 65.5 km/h 46 km/h 23 % 0 mm 443.00 W/m2 CLR
15:03 -10.2 °C -21.8 °C 34266.3 hPa NNW 69.8 km/h 41.4 km/h 23 % 0 mm 355.00 W/m2 CLR
15:09 -10.3 °C -21.6 °C 34266.3 hPa NNW 38.8 km/h 28.8 km/h 24 % 0 mm 244.00 W/m2 CLR
15:13 -10.4 °C -21.9 °C 34269.7 hPa NNW 54.4 km/h 34.8 km/h 23 % 0 mm 297.00 W/m2 CLR
15:18 -10.4 °C -21.9 °C 34269.7 hPa NW 41.7 km/h 28 km/h 23 % 0 mm 360.00 W/m2 CLR
15:24 -10.4 °C -21.9 °C 34273.1 hPa NNW 59.5 km/h 44.1 km/h 23 % 0 mm 353.00 W/m2 CLR
15:28 -10.4 °C -21.6 °C 34276.5 hPa NNW 38.8 km/h 25.9 km/h 24 % 0 mm 343.00 W/m2 CLR
15:34 -10.4 °C -21.9 °C 34276.5 hPa NNW 44.7 km/h 30.6 km/h 23 % 0 mm 334.00 W/m2 CLR
15:39 -10.4 °C -21.6 °C 34279.9 hPa NNW 54.4 km/h 29.5 km/h 24 % 0 mm 325.00 W/m2 CLR
15:43 -10.4 °C -21.9 °C 34276.5 hPa NW 62.1 km/h 40.4 km/h 23 % 0 mm 281.00 W/m2 CLR
15:49 -10.4 °C -21.9 °C 34279.9 hPa NW 51.8 km/h 39.1 km/h 23 % 0 mm 318.00 W/m2 CLR
15:54 -10.4 °C -21.9 °C 34279.9 hPa NW 51.8 km/h 38.1 km/h 23 % 0 mm 313.00 W/m2 CLR
15:59 -10.4 °C -22.3 °C 34290 hPa NW 59.5 km/h 37.5 km/h 22 % 0 mm 297.00 W/m2 CLR
16:04 -10.4 °C -22.3 °C 34293.4 hPa NNW 46.7 km/h 29.5 km/h 22 % 0 mm 288.00 W/m2 CLR
16:09 -10.5 °C -22.3 °C 34293.4 hPa NNW 64.7 km/h 35.7 km/h 22 % 0 mm 269.00 W/m2 CLR
16:14 -10.5 °C -22.3 °C 34300.2 hPa WNW 44.7 km/h 35.2 km/h 22 % 0 mm 251.00 W/m2 CLR
16:18 -10.5 °C -22.1 °C 34300.2 hPa NW 59.5 km/h 33.6 km/h 23 % 0 mm 243.00 W/m2 CLR
16:23 -10.5 °C -22.1 °C 34300.2 hPa WSW 38.8 km/h 22.9 km/h 23 % 0 mm 232.00 W/m2 CLR
16:28 -10.5 °C -22.1 °C 34303.6 hPa WNW 33.6 km/h 19.6 km/h 23 % 0 mm 214.00 W/m2 CLR
16:33 -10.5 °C -22.1 °C 34310.3 hPa NW 20.9 km/h 13.7 km/h 23 % 0 mm 202.00 W/m2 CLR
16:38 -10.6 °C -22.1 °C 34310.3 hPa NW 33.6 km/h 25.4 km/h 23 % 0 mm 142.00 W/m2 CLR
16:43 -10.6 °C -21.5 °C 34313.7 hPa NW 20.8 km/h 16.1 km/h 25 % 0 mm 125.00 W/m2 CLR
16:48 -10.7 °C -21.5 °C 34317.1 hPa West 33.6 km/h 21.6 km/h 25 % 0 mm 111.00 W/m2 CLR
16:53 -10.7 °C -21.9 °C 34317.1 hPa NW 44.1 km/h 27.7 km/h 24 % 0 mm 79.00 W/m2 CLR
16:58 -10.9 °C -22.6 °C 34317.1 hPa NNW 57 km/h 39.9 km/h 22 % 0 mm 72.00 W/m2 CLR
17:03 -10.9 °C -22.4 °C 34320.5 hPa NW 46.7 km/h 34.8 km/h 23 % 0 mm 58.00 W/m2 CLR
17:08 -11 °C -22.1 °C 34320.5 hPa WNW 38.8 km/h 27.7 km/h 24 % 0 mm 51.00 W/m2 CLR
17:14 -11.1 °C -21.9 °C 34327.3 hPa NW 38.8 km/h 28.2 km/h 25 % 0 mm 44.00 W/m2 CLR
17:18 -11.2 °C -22 °C 34327.3 hPa WNW 41.4 km/h 25.9 km/h 25 % 0 mm 53.00 W/m2 CLR
17:23 -11.2 °C -22.1 °C 34334 hPa NW 47.6 km/h 22.5 km/h 25 % 0 mm 39.00 W/m2 CLR
17:29 -11.3 °C -22.1 °C 34334 hPa WNW 50.7 km/h 34.4 km/h 25 % 0 mm 26.00 W/m2 CLR
17:34 -11.3 °C -22.1 °C 34337.4 hPa NNW 31.1 km/h 18.7 km/h 25 % 0 mm 18.00 W/m2 CLR
17:38 -11.4 °C -21.9 °C 34340.8 hPa NNW 46.7 km/h 30.6 km/h 26 % 0 mm 11.00 W/m2 CLR
17:44 -11.5 °C -21.9 °C 34337.4 hPa NW 41.7 km/h 26.4 km/h 26 % 0 mm 9.00 W/m2 CLR
17:49 -11.5 °C -22.3 °C 34340.8 hPa NW 44.1 km/h 29.5 km/h 25 % 0 mm 5.00 W/m2 CLR
17:53 -11.6 °C -22.1 °C 34351 hPa NW 41.7 km/h 30.3 km/h 26 % 0 mm 0.00 W/m2 CLR
17:59 -11.6 °C -22.1 °C 34357.7 hPa NW 41.4 km/h 21.7 km/h 26 % 0 mm 0.00 W/m2 CLR
18:04 -11.6 °C -22.1 °C 34361.1 hPa NW 29.8 km/h 21.7 km/h 26 % 0 mm 0.00 W/m2 CLR
18:08 -11.7 °C -22.1 °C 34364.5 hPa NNW 41.7 km/h 25.4 km/h 26 % 0 mm 0.00 W/m2 CLR
18:14 -11.7 °C -21.9 °C 34367.9 hPa NNW 41.7 km/h 30.3 km/h 27 % 0 mm 0.00 W/m2 CLR
18:19 -11.8 °C -21.9 °C 34367.9 hPa NW 31.1 km/h 23.3 km/h 27 % 0 mm 0.00 W/m2 CLR
18:23 -11.8 °C -21.9 °C 34371.3 hPa NW 47.6 km/h 28.2 km/h 27 % 0 mm 0.00 W/m2 CLR
18:29 -11.8 °C -21.9 °C 34374.7 hPa NW 31.1 km/h 23.8 km/h 27 % 0 mm 0.00 W/m2 CLR
18:34 -11.8 °C -21.9 °C 34381.4 hPa NNW 46.7 km/h 34.8 km/h 27 % 0 mm 0.00 W/m2 CLR
18:39 -11.8 °C -22 °C 34381.4 hPa WNW 44.7 km/h 29.8 km/h 27 % 0 mm 0.00 W/m2 CLR
18:44 -11.8 °C -22 °C 34388.2 hPa NW 35.7 km/h 23.8 km/h 27 % 0 mm 0.00 W/m2 CLR
18:49 -11.8 °C -22 °C 34391.6 hPa NNW 47.6 km/h 26.4 km/h 27 % 0 mm 0.00 W/m2 CLR
18:53 -11.8 °C -22 °C 34395 hPa WNW 31.1 km/h 19.2 km/h 27 % 0 mm 0.00 W/m2 CLR
18:58 -11.8 °C -22 °C 34395 hPa NW 31.1 km/h 20.9 km/h 27 % 0 mm 0.00 W/m2 CLR
19:03 -11.8 °C -22.2 °C 34395 hPa NW 38.8 km/h 28.8 km/h 26 % 0 mm 0.00 W/m2 CLR
19:08 -11.8 °C -22.2 °C 34395 hPa NW 36.2 km/h 28.2 km/h 26 % 0 mm 0.00 W/m2 CLR
19:13 -11.8 °C -22 °C 34398.4 hPa WNW 33.6 km/h 23.3 km/h 27 % 0 mm 0.00 W/m2 CLR
19:18 -11.9 °C -22.1 °C 34401.8 hPa NW 36.2 km/h 23.8 km/h 27 % 0 mm 0.00 W/m2 CLR
19:23 -11.9 °C -21.8 °C 34405.1 hPa NW 32.8 km/h 21.2 km/h 28 % 0 mm 0.00 W/m2 CLR
19:28 -12.1 °C -21.9 °C 34408.5 hPa NW 33.6 km/h 22 km/h 28 % 0 mm 0.00 W/m2 CLR
19:33 -12.1 °C -21.9 °C 34418.7 hPa NW 33.6 km/h 21.6 km/h 28 % 0 mm 0.00 W/m2 CLR
19:38 -12.1 °C -21.9 °C 34418.7 hPa NW 44.1 km/h 29.3 km/h 28 % 0 mm 0.00 W/m2 CLR
19:43 -12.1 °C -21.9 °C 34418.7 hPa NNW 31.1 km/h 20.3 km/h 28 % 0 mm 0.00 W/m2 CLR
19:49 -12.1 °C -22 °C 34425.5 hPa NW 31.1 km/h 22.9 km/h 28 % 0 mm 0.00 W/m2 CLR
19:53 -12.1 °C -22 °C 34428.8 hPa NNW 41.4 km/h 29.8 km/h 28 % 0 mm 0.00 W/m2 CLR
19:58 -12.2 °C -22.1 °C 34435.6 hPa NW 29.8 km/h 17.4 km/h 28 % 0 mm 0.00 W/m2 CLR
20:04 -12.3 °C -21.8 °C 34435.6 hPa NNW 33.6 km/h 22.5 km/h 29 % 0 mm 0.00 W/m2 CLR
20:08 -12.3 °C -21.8 °C 34439 hPa NW 31.1 km/h 23.3 km/h 29 % 0 mm 0.00 W/m2 CLR
20:13 -12.3 °C -21.8 °C 34439 hPa NW 32.8 km/h 25.1 km/h 29 % 0 mm 0.00 W/m2 CLR
20:19 -12.3 °C -21.9 °C 34445.8 hPa NNW 33.6 km/h 27.2 km/h 29 % 0 mm 0.00 W/m2 CLR
20:23 -12.3 °C -21.9 °C 34452.6 hPa NW 33.6 km/h 21.7 km/h 29 % 0 mm 0.00 W/m2 CLR
20:28 -12.4 °C -21.7 °C 34459.3 hPa NNW 32.8 km/h 18.3 km/h 30 % 0 mm 0.00 W/m2 CLR
20:34 -12.4 °C -21.7 °C 34466.1 hPa NW 31.1 km/h 23 km/h 30 % 0 mm 0.00 W/m2 CLR
20:39 -12.4 °C -21.8 °C 34466.1 hPa North 33.6 km/h 22.5 km/h 30 % 0 mm 0.00 W/m2 CLR
20:43 -12.5 °C -21.8 °C 34466.1 hPa NW 31.1 km/h 21.6 km/h 30 % 0 mm 0.00 W/m2 CLR
20:49 -12.6 °C -21.8 °C 34466.1 hPa NW 41.4 km/h 21.2 km/h 30 % 0 mm 0.00 W/m2 CLR
20:54 -12.6 °C -21.8 °C 34469.5 hPa WNW 41.7 km/h 21.2 km/h 30 % 0 mm 0.00 W/m2 CLR
20:58 -12.5 °C -21.8 °C 34472.9 hPa NW 38.8 km/h 16.3 km/h 30 % 0 mm 0.00 W/m2 CLR
21:04 -12.5 °C -21.8 °C 34476.3 hPa NW 29.8 km/h 14.5 km/h 30 % 0 mm 0.00 W/m2 CLR
21:09 -12.6 °C -21.8 °C 34476.3 hPa NW 31.1 km/h 20.3 km/h 30 % 0 mm 0.00 W/m2 CLR
21:14 -12.6 °C -21.8 °C 34479.6 hPa NW 31.1 km/h 22.2 km/h 30 % 0 mm 0.00 W/m2 CLR
21:19 -12.6 °C -21.8 °C 34479.6 hPa NW 33.6 km/h 23.3 km/h 30 % 0 mm 0.00 W/m2 CLR
21:24 -12.6 °C -21.6 °C 34479.6 hPa NW 38.8 km/h 23 km/h 31 % 0 mm 0.00 W/m2 CLR
21:28 -12.6 °C -21.6 °C 34479.6 hPa WNW 29.8 km/h 21.6 km/h 31 % 0 mm 0.00 W/m2 CLR
21:33 -12.6 °C -21.7 °C 34479.6 hPa NW 36.2 km/h 24.6 km/h 31 % 0 mm 0.00 W/m2 CLR
21:38 -12.7 °C -21.7 °C 34483 hPa NNW 29.8 km/h 20.8 km/h 31 % 0 mm 0.00 W/m2 CLR
21:43 -12.7 °C -21.7 °C 34486.4 hPa WNW 26.9 km/h 17.1 km/h 31 % 0 mm 0.00 W/m2 CLR
21:48 -12.7 °C -21.5 °C 34493.2 hPa WNW 29.8 km/h 17.1 km/h 32 % 0 mm 0.00 W/m2 CLR
21:53 -12.7 °C -21.6 °C 34493.2 hPa NNW 20.9 km/h 16.6 km/h 32 % 0 mm 0.00 W/m2 CLR
21:58 -12.7 °C -21.6 °C 34496.6 hPa NW 20.9 km/h 15 km/h 32 % 0 mm 0.00 W/m2 CLR
22:03 -12.7 °C -21.6 °C 34503.3 hPa NW 23.8 km/h 16.3 km/h 32 % 0 mm 0.00 W/m2 CLR
22:09 -12.8 °C -21.6 °C 34503.3 hPa NW 26.9 km/h 16.1 km/h 32 % 0 mm 0.00 W/m2 CLR
22:13 -12.8 °C -21.8 °C 34503.3 hPa NW 28.5 km/h 20 km/h 31 % 0 mm 0.00 W/m2 CLR
22:18 -12.7 °C -21.8 °C 34506.7 hPa WNW 26.9 km/h 19.2 km/h 31 % 0 mm 0.00 W/m2 CLR
22:24 -12.7 °C -21.8 °C 34506.7 hPa WNW 29.8 km/h 21.2 km/h 31 % 0 mm 0.00 W/m2 CLR
22:28 -12.7 °C -21.7 °C 34510.1 hPa West 26.9 km/h 15.3 km/h 31 % 0 mm 0.00 W/m2 CLR
22:33 -12.7 °C -21.7 °C 34513.5 hPa WNW 20.8 km/h 13.7 km/h 31 % 0 mm 0.00 W/m2 CLR
22:39 -12.7 °C -21.7 °C 34513.5 hPa NW 20.9 km/h 12.7 km/h 31 % 0 mm 0.00 W/m2 CLR
22:43 -12.6 °C -21.7 °C 34516.9 hPa West 18.2 km/h 14.5 km/h 31 % 0 mm 0.00 W/m2 CLR
22:48 -12.6 °C -21.7 °C 34520.3 hPa WNW 15.6 km/h 10.9 km/h 31 % 0 mm 0.00 W/m2 CLR
22:54 -12.7 °C -21.7 °C 34523.7 hPa WNW 29.8 km/h 17.4 km/h 31 % 0 mm 0.00 W/m2 CLR
22:59 -12.7 °C -21.7 °C 34523.7 hPa NW 31.1 km/h 20 km/h 31 % 0 mm 0.00 W/m2 CLR
23:03 -12.7 °C -21.7 °C 34523.7 hPa NW 29.8 km/h 16.1 km/h 31 % 0 mm 0.00 W/m2 CLR
23:09 -12.7 °C -21.7 °C 34527 hPa NW 38.8 km/h 23.5 km/h 31 % 0 mm 0.00 W/m2 CLR
23:14 -12.6 °C -21.8 °C 34523.7 hPa NW 29.8 km/h 18.8 km/h 30 % 0 mm 0.00 W/m2 CLR
23:18 -12.6 °C -21.6 °C 34530.4 hPa NW 38.8 km/h 29.8 km/h 31 % 0 mm 0.00 W/m2 CLR
23:24 -12.6 °C -21.6 °C 34530.4 hPa NW 31.1 km/h 21.2 km/h 31 % 0 mm 0.00 W/m2 CLR
23:29 -12.6 °C -21.7 °C 34530.4 hPa NW 35.7 km/h 20.4 km/h 31 % 0 mm 0.00 W/m2 CLR
23:34 -12.7 °C -21.7 °C 34533.8 hPa NNW 41.7 km/h 32.2 km/h 31 % 0 mm 0.00 W/m2 CLR
23:39 -12.7 °C -21.7 °C 34537.2 hPa NNW 46.7 km/h 36.7 km/h 31 % 0 mm 0.00 W/m2 CLR
23:44 -12.6 °C -21.7 °C 34540.6 hPa NW 41.7 km/h 20 km/h 31 % 0 mm 0.00 W/m2 CLR
23:49 -12.6 °C -21.7 °C 34544 hPa NW 44.7 km/h 32.7 km/h 31 % 0 mm 0.00 W/m2 CLR
23:54 -12.6 °C -21.9 °C 34544 hPa NW 44.7 km/h 27.2 km/h 30 % 0 mm 0.00 W/m2 CLR
23:59 -12.6 °C -21.8 °C 34547.4 hPa NW 51.8 km/h 35.4 km/h 30 % 0 mm 0.00 W/m2 CLR
Juneau County Weather
Compliments of Weather Underground - 3.5 mb